LiveATC.Net - Listen to live air traffic control over the Internet! Contact for advertising information

ICAO: KPDT  IATA: PDT   Airport: Eastern Oregon Regional Airport at Pendleton
City: Pendleton   State/Province: Oregon
Country: United States   Continent: North America
KPDT METAR Weather: KPDT 270353Z 14007KT 10SM CLR M09/M12 A3051 RMK AO2 SLP353 T10941117
KPDT Flight Activity (FlightAware)
KPDT Airport Info   (AirNav) (iFlightPlanner)
KPDT VFR Sectional Chart   (iFlightPlanner) 
KPDT IFR Low Chart   (iFlightPlanner) 
KPDT Tower
Feed Status: UP   Listeners: 2
Listen right in your browser - requires Flash (in browser, requires Flash)
Click here to listen with your own player (launches your MP3 player)
KPDT Tower Audio Archives
Pendleton Tower119.700


Unauthorized use prohibited. See Terms of Service

Find LiveATC Audio Streams

Airport/ARTCC Code

(e.g., 124.400, 128.75)
Site-wide search

Browse LiveATC Feeds
LiveATC Coverage Map
Top 50 LiveATC Feeds
Bad Weather Areas

Offer a LiveATC Feed
Press Inquiries

LiveATC on iPhone
LiveATC on Android

Windows Phone
Windows 8/10

LiveATC Mobile
(Mobile browser)

ATC Audio Archives
Interesting Recordings

LiveATC Forums

Home Page
Make a Donation
LiveATC Bookstore

Terms of Use
Privacy Policy

ATC/Radar Sites
U.S. ARTCC Freqs
Canadian Air Freqs


FAA Airport Status
Nat'l Airspace Status
Arrival Demand Charts

Server Software By:

Please make a donation to help us keep growing!